Sacramento, CA

7:22 PM PST on November 25, 2014 (GMT -0800)
Sacramento International | Change Station
CLOSE
Current Station
Airport
Location: Sacramento International,
Elevation: 26 ft
Nearby Weather Stations
Active Advisory: Special Statement

Elev 26 ft 38.70 °N, 121.59 °W | Updated 29 minutes ago

Clear
Clear
50 °F
Feels Like 50 °F
N
0
Wind Variable Wind from North

Today
High -- | Low -- °F
--% Chance of Precip.
Yesterday
High -- | Low -- °F
Precip. -- in
6:58 AM 4:46 PM
Waxing Crescent, 16% visible
Pressure 30.37 in
Visibility 10.0 miles
Clouds Clear
Dew Point 43 °F
Humidity 77%
Rainfall 0.00 in
Snow Depth Not available.
UV 0 out of 12
Pollen 1.70 out of 12
Air Quality Not available.
Flu Activity Not available.
METAR KSMF 260253Z 00000KT 10SM CLR 10/06 A3037 RMK AO2 SLP283 T01000061 55004

More Conditions Fewer Conditions

Pressure 30.37 in
Visibility 10.0 miles
Clouds Clear
Dew Point 43 °F
Humidity 77%
Rainfall 0.00 in
Snow Depth Not available.
UV 0 out of 12
Pollen 1.70 out of 12
Air Quality Not available.
Flu Activity Not available.
METAR KSMF 260253Z 00000KT 10SM CLR 10/06 A3037 RMK AO2 SLP283 T01000061 55004

More Conditions Fewer Conditions

10-Day Weather Forecast

Almanac

Astronomy

Nov. 25, 2014 Rise Set
Actual Time
Civil Twilight
Nautical Twilight
Astronomical Twilight
Moon
Length of Visible Light
Length of Day
Tomorrow will be .
, % of the Moon is Illuminated

Today's Extremes

State Highs State Lows

Community

WunderPhotos

Upload Photos

1,773,673 photos uploaded!

WunderBlogs® & News

Nearby

Air Quality

  Air Quality AQ Index Pollutant
Not available.

Snow Depth

Station Depth Elevation

Earthquake Activity

City Distance Mag. Time & Date
Minimum magnitude displayed is 2.5.

Coastal Water Temperatures

Place Temperature

Nearby Weather Stations